sensor_id;sensor_type;location;lat;lon;timestamp;pressure;altitude;pressure_sealevel;temperature;humidity
41596;BME280;27283;52.504;13.358;2023-08-21T00:01:03;101782.41;;;23.48;79.22
41596;BME280;27283;52.504;13.358;2023-08-21T00:04:11;101783.63;;;23.52;79.15
41596;BME280;27283;52.504;13.358;2023-08-21T00:07:00;101782.25;;;23.43;78.48
41596;BME280;27283;52.504;13.358;2023-08-21T00:09:42;101789.97;;;23.28;78.59
41596;BME280;27283;52.504;13.358;2023-08-21T00:15:26;101784.56;;;23.21;77.27
41596;BME280;27283;52.504;13.358;2023-08-21T00:18:36;101785.16;;;23.23;77.25
41596;BME280;27283;52.504;13.358;2023-08-21T00:21:23;101784.25;;;23.29;76.34
41596;BME280;27283;52.504;13.358;2023-08-21T00:24:16;101780.00;;;23.33;76.23
41596;BME280;27283;52.504;13.358;2023-08-21T00:26:59;101780.91;;;23.27;76.66
41596;BME280;27283;52.504;13.358;2023-08-21T00:29:52;101777.91;;;23.10;77.62
41596;BME280;27283;52.504;13.358;2023-08-21T00:33:01;101776.50;;;23.26;77.70
41596;BME280;27283;52.504;13.358;2023-08-21T00:35:52;101784.25;;;23.29;77.33
41596;BME280;27283;52.504;13.358;2023-08-21T00:39:14;101775.19;;;23.10;78.12
41596;BME280;27283;52.504;13.358;2023-08-21T00:41:51;101785.41;;;23.22;77.72
41596;BME280;27283;52.504;13.358;2023-08-21T00:45:43;101783.06;;;23.25;77.57
41596;BME280;27283;52.504;13.358;2023-08-21T00:48:04;101790.44;;;23.25;77.96
41596;BME280;27283;52.504;13.358;2023-08-21T00:51:23;101788.44;;;23.07;79.70
41596;BME280;27283;52.504;13.358;2023-08-21T01:01:12;101781.50;;;23.11;80.04
41596;BME280;27283;52.504;13.358;2023-08-21T01:05:21;101782.31;;;23.11;80.70
41596;BME280;27283;52.504;13.358;2023-08-21T01:08:09;101781.91;;;23.14;80.76
41596;BME280;27283;52.504;13.358;2023-08-21T01:11:23;101789.97;;;23.03;81.78
41596;BME280;27283;52.504;13.358;2023-08-21T01:14:48;101786.16;;;23.10;81.78
41596;BME280;27283;52.504;13.358;2023-08-21T01:17:30;101786.81;;;22.99;82.39
41596;BME280;27283;52.504;13.358;2023-08-21T01:20:14;101792.59;;;22.91;83.44
41596;BME280;27283;52.504;13.358;2023-08-21T01:26:43;101781.91;;;23.08;82.84
41596;BME280;27283;52.504;13.358;2023-08-21T01:31:21;101786.78;;;23.06;83.14
41596;BME280;27283;52.504;13.358;2023-08-21T01:34:26;101784.47;;;23.09;82.81
41596;BME280;27283;52.504;13.358;2023-08-21T01:38:02;101787.41;;;23.08;82.75
41596;BME280;27283;52.504;13.358;2023-08-21T01:41:11;101774.72;;;23.13;82.77
41596;BME280;27283;52.504;13.358;2023-08-21T01:44:16;101766.19;;;23.22;82.20
41596;BME280;27283;52.504;13.358;2023-08-21T01:47:29;101754.47;;;23.14;82.32
41596;BME280;27283;52.504;13.358;2023-08-21T01:50:36;101758.81;;;23.22;82.48
41596;BME280;27283;52.504;13.358;2023-08-21T01:53:10;101758.63;;;23.17;82.32
41596;BME280;27283;52.504;13.358;2023-08-21T01:56:21;101763.00;;;23.25;82.43
41596;BME280;27283;52.504;13.358;2023-08-21T01:59:27;101763.06;;;23.18;82.79
41596;BME280;27283;52.504;13.358;2023-08-21T02:02:26;101759.88;;;23.21;81.77
41596;BME280;27283;52.504;13.358;2023-08-21T02:05:06;101768.44;;;23.31;81.75
41596;BME280;27283;52.504;13.358;2023-08-21T02:07:42;101759.41;;;23.24;81.49
41596;BME280;27283;52.504;13.358;2023-08-21T02:10:48;101760.31;;;23.18;81.95
41596;BME280;27283;52.504;13.358;2023-08-21T02:13:37;101762.03;;;23.19;81.84
41596;BME280;27283;52.504;13.358;2023-08-21T02:19:41;101753.72;;;23.26;82.04
41596;BME280;27283;52.504;13.358;2023-08-21T02:22:13;101762.69;;;23.14;82.05
41596;BME280;27283;52.504;13.358;2023-08-21T02:24:51;101755.97;;;23.10;81.82
41596;BME280;27283;52.504;13.358;2023-08-21T02:27:23;101756.34;;;23.14;81.88
41596;BME280;27283;52.504;13.358;2023-08-21T02:29:59;101764.13;;;23.17;82.07
41596;BME280;27283;52.504;13.358;2023-08-21T02:32:45;101763.69;;;23.20;81.62
41596;BME280;27283;52.504;13.358;2023-08-21T02:35:40;101770.06;;;23.14;81.42
41596;BME280;27283;52.504;13.358;2023-08-21T02:38:19;101771.97;;;23.13;81.06
41596;BME280;27283;52.504;13.358;2023-08-21T02:42:02;101769.25;;;23.13;81.58
41596;BME280;27283;52.504;13.358;2023-08-21T02:44:30;101769.38;;;23.18;81.36
41596;BME280;27283;52.504;13.358;2023-08-21T02:47:15;101767.31;;;23.14;81.01
41596;BME280;27283;52.504;13.358;2023-08-21T02:49:59;101768.56;;;23.18;81.11
41596;BME280;27283;52.504;13.358;2023-08-21T02:52:56;101759.53;;;23.11;81.38
41596;BME280;27283;52.504;13.358;2023-08-21T02:56:30;101760.94;;;23.20;80.62
41596;BME280;27283;52.504;13.358;2023-08-21T03:03:54;101768.25;;;23.01;82.09
41596;BME280;27283;52.504;13.358;2023-08-21T03:07:10;101759.78;;;23.09;81.26
41596;BME280;27283;52.504;13.358;2023-08-21T03:17:37;101754.88;;;23.11;81.39
41596;BME280;27283;52.504;13.358;2023-08-21T03:20:16;101751.72;;;23.14;81.07
41596;BME280;27283;52.504;13.358;2023-08-21T03:22:56;101754.84;;;23.18;80.56
41596;BME280;27283;52.504;13.358;2023-08-21T03:26:02;101753.78;;;23.19;80.87
41596;BME280;27283;52.504;13.358;2023-08-21T03:28:53;101754.84;;;23.18;80.46
41596;BME280;27283;52.504;13.358;2023-08-21T03:31:36;101755.91;;;23.17;80.73
41596;BME280;27283;52.504;13.358;2023-08-21T03:34:22;101753.44;;;23.09;81.97
41596;BME280;27283;52.504;13.358;2023-08-21T03:37:07;101752.72;;;22.95;83.21
41596;BME280;27283;52.504;13.358;2023-08-21T03:39:53;101753.25;;;23.04;81.01
41596;BME280;27283;52.504;13.358;2023-08-21T03:42:51;101761.53;;;22.97;80.43
41596;BME280;27283;52.504;13.358;2023-08-21T03:45:54;101756.88;;;22.97;79.82
41596;BME280;27283;52.504;13.358;2023-08-21T03:48:29;101749.28;;;22.99;79.93
41596;BME280;27283;52.504;13.358;2023-08-21T03:51:42;101758.28;;;23.07;78.91
41596;BME280;27283;52.504;13.358;2023-08-21T03:54:57;101765.31;;;23.03;78.17
41596;BME280;27283;52.504;13.358;2023-08-21T03:57:56;101772.66;;;23.02;78.50
41596;BME280;27283;52.504;13.358;2023-08-21T04:00:45;101773.06;;;23.06;78.34
41596;BME280;27283;52.504;13.358;2023-08-21T04:03:23;101768.81;;;23.10;77.88
41596;BME280;27283;52.504;13.358;2023-08-21T04:05:56;101775.19;;;23.04;78.17
41596;BME280;27283;52.504;13.358;2023-08-21T04:08:33;101773.75;;;23.01;78.22
41596;BME280;27283;52.504;13.358;2023-08-21T04:11:09;101776.22;;;23.09;78.14
41596;BME280;27283;52.504;13.358;2023-08-21T04:13:49;101778.53;;;23.12;77.94
41596;BME280;27283;52.504;13.358;2023-08-21T04:16:21;101777.84;;;23.17;77.47
41596;BME280;27283;52.504;13.358;2023-08-21T04:19:02;101781.59;;;23.23;76.92
41596;BME280;27283;52.504;13.358;2023-08-21T04:21:37;101783.97;;;23.19;77.68
41596;BME280;27283;52.504;13.358;2023-08-21T04:24:20;101784.72;;;23.26;77.36
41596;BME280;27283;52.504;13.358;2023-08-21T04:26:53;101781.38;;;23.24;77.21
41596;BME280;27283;52.504;13.358;2023-08-21T04:29:33;101787.88;;;23.30;76.93
41596;BME280;27283;52.504;13.358;2023-08-21T04:32:27;101790.50;;;23.18;78.29
41596;BME280;27283;52.504;13.358;2023-08-21T04:35:03;101806.75;;;23.20;79.37
41596;BME280;27283;52.504;13.358;2023-08-21T04:37:57;101809.78;;;23.05;81.22
41596;BME280;27283;52.504;13.358;2023-08-21T04:40:45;101806.59;;;23.08;80.78
41596;BME280;27283;52.504;13.358;2023-08-21T04:43:37;101799.75;;;23.24;79.68
41596;BME280;27283;52.504;13.358;2023-08-21T04:46:18;101806.91;;;23.25;80.77
41596;BME280;27283;52.504;13.358;2023-08-21T04:48:59;101804.94;;;23.32;79.71
41596;BME280;27283;52.504;13.358;2023-08-21T04:51:38;101806.06;;;23.24;80.96
41596;BME280;27283;52.504;13.358;2023-08-21T04:54:34;101811.38;;;22.87;82.39
41596;BME280;27283;52.504;13.358;2023-08-21T04:57:23;101811.63;;;22.54;86.03
41596;BME280;27283;52.504;13.358;2023-08-21T05:00:17;101814.13;;;22.55;86.54
41596;BME280;27283;52.504;13.358;2023-08-21T05:03:00;101804.03;;;22.56;87.14
41596;BME280;27283;52.504;13.358;2023-08-21T05:05:36;101818.00;;;23.05;84.00
41596;BME280;27283;52.504;13.358;2023-08-21T05:08:11;101815.13;;;22.99;85.63
41596;BME280;27283;52.504;13.358;2023-08-21T05:10:44;101816.50;;;22.83;85.52
41596;BME280;27283;52.504;13.358;2023-08-21T05:13:30;101811.13;;;22.95;84.41
41596;BME280;27283;52.504;13.358;2023-08-21T05:16:33;101811.63;;;23.17;82.79
41596;BME280;27283;52.504;13.358;2023-08-21T05:19:09;101813.44;;;22.98;84.23
41596;BME280;27283;52.504;13.358;2023-08-21T05:21:57;101809.03;;;23.23;81.11
41596;BME280;27283;52.504;13.358;2023-08-21T05:24:43;101809.47;;;23.20;81.87
41596;BME280;27283;52.504;13.358;2023-08-21T05:27:17;101811.94;;;23.28;82.31
41596;BME280;27283;52.504;13.358;2023-08-21T05:29:56;101816.47;;;23.15;82.68
41596;BME280;27283;52.504;13.358;2023-08-21T05:32:46;101812.34;;;23.31;83.12
41596;BME280;27283;52.504;13.358;2023-08-21T05:35:21;101811.13;;;23.46;81.11
41596;BME280;27283;52.504;13.358;2023-08-21T05:38:06;101804.81;;;23.45;81.54
41596;BME280;27283;52.504;13.358;2023-08-21T05:40:45;101805.50;;;23.59;78.76
41596;BME280;27283;52.504;13.358;2023-08-21T05:43:19;101804.47;;;23.97;76.98
41596;BME280;27283;52.504;13.358;2023-08-21T05:46:21;101806.88;;;24.24;74.89
41596;BME280;27283;52.504;13.358;2023-08-21T05:49:08;101807.31;;;24.58;72.80
41596;BME280;27283;52.504;13.358;2023-08-21T05:52:13;101806.72;;;24.68;72.14
41596;BME280;27283;52.504;13.358;2023-08-21T05:54:49;101809.16;;;24.76;72.54
41596;BME280;27283;52.504;13.358;2023-08-21T05:57:37;101806.06;;;24.96;71.18
41596;BME280;27283;52.504;13.358;2023-08-21T06:00:19;101810.16;;;25.17;70.07
41596;BME280;27283;52.504;13.358;2023-08-21T06:03:04;101810.41;;;25.16;68.73
41596;BME280;27283;52.504;13.358;2023-08-21T06:05:56;101818.66;;;25.16;68.73
41596;BME280;27283;52.504;13.358;2023-08-21T06:08:54;101809.50;;;25.34;67.33
41596;BME280;27283;52.504;13.358;2023-08-21T06:11:46;101815.44;;;25.66;65.35
41596;BME280;27283;52.504;13.358;2023-08-21T06:14:27;101814.28;;;25.50;67.41
41596;BME280;27283;52.504;13.358;2023-08-21T06:17:15;101822.69;;;25.01;70.96
41596;BME280;27283;52.504;13.358;2023-08-21T06:19:52;101824.81;;;25.29;70.38
41596;BME280;27283;52.504;13.358;2023-08-21T06:22:29;101825.78;;;25.47;70.97
41596;BME280;27283;52.504;13.358;2023-08-21T06:25:02;101826.00;;;25.45;72.34
41596;BME280;27283;52.504;13.358;2023-08-21T06:27:35;101827.09;;;25.56;70.50
41596;BME280;27283;52.504;13.358;2023-08-21T06:30:26;101838.56;;;25.53;68.83
41596;BME280;27283;52.504;13.358;2023-08-21T06:32:59;101842.97;;;25.42;72.32
41596;BME280;27283;52.504;13.358;2023-08-21T06:35:40;101841.81;;;25.38;71.38
41596;BME280;27283;52.504;13.358;2023-08-21T06:38:20;101839.16;;;25.79;68.12
41596;BME280;27283;52.504;13.358;2023-08-21T06:40:55;101839.50;;;25.71;66.10
41596;BME280;27283;52.504;13.358;2023-08-21T06:43:32;101848.56;;;25.24;67.42
41596;BME280;27283;52.504;13.358;2023-08-21T06:46:04;101842.88;;;24.83;69.85
41596;BME280;27283;52.504;13.358;2023-08-21T06:48:39;101849.44;;;24.70;72.43
41596;BME280;27283;52.504;13.358;2023-08-21T06:51:17;101846.59;;;25.31;70.58
41596;BME280;27283;52.504;13.358;2023-08-21T06:54:03;101845.50;;;26.03;69.20
41596;BME280;27283;52.504;13.358;2023-08-21T06:56:44;101856.47;;;26.84;64.06
41596;BME280;27283;52.504;13.358;2023-08-21T06:59:32;101852.72;;;27.24;61.23
41596;BME280;27283;52.504;13.358;2023-08-21T07:02:06;101847.69;;;27.04;60.68
41596;BME280;27283;52.504;13.358;2023-08-21T07:04:41;101842.41;;;26.28;63.03
41596;BME280;27283;52.504;13.358;2023-08-21T07:07:18;101838.97;;;26.79;61.30
41596;BME280;27283;52.504;13.358;2023-08-21T07:10:04;101837.72;;;27.20;59.98
41596;BME280;27283;52.504;13.358;2023-08-21T07:12:43;101840.25;;;27.56;58.34
41596;BME280;27283;52.504;13.358;2023-08-21T07:15:16;101834.13;;;28.37;55.67
41596;BME280;27283;52.504;13.358;2023-08-21T07:17:52;101842.53;;;28.20;55.58
41596;BME280;27283;52.504;13.358;2023-08-21T07:20:41;101852.09;;;28.13;55.72
41596;BME280;27283;52.504;13.358;2023-08-21T07:23:25;101845.38;;;28.31;56.28
41596;BME280;27283;52.504;13.358;2023-08-21T07:26:16;101847.88;;;28.32;53.68
41596;BME280;27283;52.504;13.358;2023-08-21T07:28:48;101853.66;;;28.75;53.63
41596;BME280;27283;52.504;13.358;2023-08-21T07:31:27;101856.38;;;28.03;54.55
41596;BME280;27283;52.504;13.358;2023-08-21T07:34:00;101855.06;;;28.28;50.59
41596;BME280;27283;52.504;13.358;2023-08-21T07:36:33;101859.06;;;28.42;50.27
41596;BME280;27283;52.504;13.358;2023-08-21T07:39:08;101856.50;;;27.52;52.65
41596;BME280;27283;52.504;13.358;2023-08-21T07:41:40;101857.72;;;27.28;53.11
41596;BME280;27283;52.504;13.358;2023-08-21T07:44:15;101857.06;;;27.03;52.45
41596;BME280;27283;52.504;13.358;2023-08-21T07:47:17;101870.19;;;26.96;53.91
41596;BME280;27283;52.504;13.358;2023-08-21T07:49:58;101861.59;;;27.61;53.00
41596;BME280;27283;52.504;13.358;2023-08-21T07:52:31;101872.97;;;27.47;52.14
41596;BME280;27283;52.504;13.358;2023-08-21T07:55:08;101865.34;;;27.03;53.22
41596;BME280;27283;52.504;13.358;2023-08-21T07:57:46;101862.75;;;27.14;53.22
41596;BME280;27283;52.504;13.358;2023-08-21T08:00:30;101868.38;;;27.53;52.81
41596;BME280;27283;52.504;13.358;2023-08-21T08:03:06;101876.78;;;27.80;49.14
41596;BME280;27283;52.504;13.358;2023-08-21T08:05:56;101872.19;;;27.86;46.96
41596;BME280;27283;52.504;13.358;2023-08-21T08:09:05;101876.16;;;27.56;47.05
41596;BME280;27283;52.504;13.358;2023-08-21T08:11:47;101879.75;;;27.05;47.96
41596;BME280;27283;52.504;13.358;2023-08-21T08:14:20;101878.13;;;26.64;49.62
41596;BME280;27283;52.504;13.358;2023-08-21T08:16:52;101870.56;;;26.71;49.14
41596;BME280;27283;52.504;13.358;2023-08-21T08:19:25;101880.41;;;26.67;48.65
41596;BME280;27283;52.504;13.358;2023-08-21T08:21:58;101874.41;;;26.70;48.07
41596;BME280;27283;52.504;13.358;2023-08-21T08:24:31;101866.03;;;26.24;49.79
41596;BME280;27283;52.504;13.358;2023-08-21T08:27:13;101865.44;;;26.51;50.43
41596;BME280;27283;52.504;13.358;2023-08-21T08:29:49;101874.94;;;26.84;51.60
41596;BME280;27283;52.504;13.358;2023-08-21T08:32:26;101872.91;;;26.10;53.08
41596;BME280;27283;52.504;13.358;2023-08-21T08:35:11;101869.31;;;26.50;52.07
41596;BME280;27283;52.504;13.358;2023-08-21T08:37:51;101862.50;;;27.15;50.56
41596;BME280;27283;52.504;13.358;2023-08-21T08:40:30;101876.16;;;27.95;47.11
41596;BME280;27283;52.504;13.358;2023-08-21T08:43:06;101873.59;;;28.55;44.04
41596;BME280;27283;52.504;13.358;2023-08-21T08:46:44;101874.56;;;29.58;40.86
41596;BME280;27283;52.504;13.358;2023-08-21T08:49:35;101875.47;;;29.31;38.39
41596;BME280;27283;52.504;13.358;2023-08-21T08:52:31;101875.63;;;29.19;37.67
41596;BME280;27283;52.504;13.358;2023-08-21T08:58:41;101877.47;;;29.41;33.67
41596;BME280;27283;52.504;13.358;2023-08-21T09:01:21;101874.22;;;29.86;34.38
41596;BME280;27283;52.504;13.358;2023-08-21T09:04:01;101873.50;;;30.17;34.23
41596;BME280;27283;52.504;13.358;2023-08-21T09:07:01;101873.78;;;29.67;32.92
41596;BME280;27283;52.504;13.358;2023-08-21T09:09:47;101870.88;;;29.47;33.71
41596;BME280;27283;52.504;13.358;2023-08-21T09:12:50;101860.97;;;29.56;33.55
41596;BME280;27283;52.504;13.358;2023-08-21T09:15:46;101863.47;;;30.05;33.85
41596;BME280;27283;52.504;13.358;2023-08-21T09:19:00;101865.72;;;29.66;33.74
41596;BME280;27283;52.504;13.358;2023-08-21T09:21:58;101860.75;;;30.11;34.41
41596;BME280;27283;52.504;13.358;2023-08-21T09:25:03;101860.91;;;30.62;33.18
41596;BME280;27283;52.504;13.358;2023-08-21T09:27:59;101857.25;;;30.46;33.03
41596;BME280;27283;52.504;13.358;2023-08-21T09:31:10;101861.19;;;30.61;33.72
41596;BME280;27283;52.504;13.358;2023-08-21T09:33:59;101853.31;;;29.31;34.23
41596;BME280;27283;52.504;13.358;2023-08-21T09:37:01;101855.94;;;29.53;36.11
41596;BME280;27283;52.504;13.358;2023-08-21T09:39:53;101863.41;;;29.90;33.98
41596;BME280;27283;52.504;13.358;2023-08-21T09:42:42;101859.69;;;29.31;34.68
41596;BME280;27283;52.504;13.358;2023-08-21T09:45:28;101867.09;;;29.21;35.73
41596;BME280;27283;52.504;13.358;2023-08-21T09:48:07;101863.41;;;29.15;35.71
41596;BME280;27283;52.504;13.358;2023-08-21T09:54:36;101853.00;;;30.28;34.41
41596;BME280;27283;52.504;13.358;2023-08-21T09:57:43;101848.63;;;29.04;35.69
41596;BME280;27283;52.504;13.358;2023-08-21T10:00:45;101851.03;;;29.23;36.59
41596;BME280;27283;52.504;13.358;2023-08-21T10:03:59;101849.25;;;29.44;36.00
41596;BME280;27283;52.504;13.358;2023-08-21T10:07:00;101844.78;;;29.38;36.18
41596;BME280;27283;52.504;13.358;2023-08-21T10:09:39;101843.22;;;29.20;36.67
41596;BME280;27283;52.504;13.358;2023-08-21T10:12:14;101850.56;;;29.36;36.87
41596;BME280;27283;52.504;13.358;2023-08-21T10:14:50;101841.91;;;29.22;36.59
41596;BME280;27283;52.504;13.358;2023-08-21T10:17:22;101842.16;;;30.11;35.90
41596;BME280;27283;52.504;13.358;2023-08-21T10:20:08;101851.72;;;29.83;35.18
41596;BME280;27283;52.504;13.358;2023-08-21T10:23:02;101845.69;;;29.91;35.02
41596;BME280;27283;52.504;13.358;2023-08-21T10:25:42;101848.19;;;29.93;35.53
41596;BME280;27283;52.504;13.358;2023-08-21T10:28:18;101850.81;;;29.77;35.78
41596;BME280;27283;52.504;13.358;2023-08-21T10:30:54;101844.53;;;30.61;34.66
41596;BME280;27283;52.504;13.358;2023-08-21T10:33:45;101841.59;;;29.61;35.41
41596;BME280;27283;52.504;13.358;2023-08-21T10:37:02;101846.91;;;29.25;35.59
41596;BME280;27283;52.504;13.358;2023-08-21T10:43:02;101847.03;;;29.08;35.23
41596;BME280;27283;52.504;13.358;2023-08-21T10:46:13;101845.34;;;28.75;34.56
41596;BME280;27283;52.504;13.358;2023-08-21T10:48:56;101837.22;;;28.41;37.01
41596;BME280;27283;52.504;13.358;2023-08-21T10:52:10;101843.19;;;28.82;35.82
41596;BME280;27283;52.504;13.358;2023-08-21T10:55:01;101844.53;;;29.07;35.41
41596;BME280;27283;52.504;13.358;2023-08-21T10:57:55;101843.97;;;29.10;34.79
41596;BME280;27283;52.504;13.358;2023-08-21T11:01:26;101850.69;;;28.59;36.41
41596;BME280;27283;52.504;13.358;2023-08-21T11:04:21;101851.44;;;28.27;37.22
41596;BME280;27283;52.504;13.358;2023-08-21T11:07:11;101851.44;;;28.77;39.08
41596;BME280;27283;52.504;13.358;2023-08-21T11:09:53;101860.91;;;28.81;36.58
41596;BME280;27283;52.504;13.358;2023-08-21T11:12:58;101860.25;;;28.24;37.78
41596;BME280;27283;52.504;13.358;2023-08-21T11:15:37;101848.94;;;29.08;36.44
41596;BME280;27283;52.504;13.358;2023-08-21T11:18:11;101861.59;;;29.68;38.08
41596;BME280;27283;52.504;13.358;2023-08-21T11:20:43;101856.13;;;29.36;36.12
41596;BME280;27283;52.504;13.358;2023-08-21T11:23:35;101855.63;;;28.79;37.55
41596;BME280;27283;52.504;13.358;2023-08-21T11:26:21;101862.06;;;28.14;37.97
41596;BME280;27283;52.504;13.358;2023-08-21T11:28:57;101861.44;;;27.33;39.29
41596;BME280;27283;52.504;13.358;2023-08-21T11:31:53;101857.66;;;27.96;38.45
41596;BME280;27283;52.504;13.358;2023-08-21T11:34:46;101849.41;;;28.18;35.83
41596;BME280;27283;52.504;13.358;2023-08-21T11:37:44;101851.78;;;28.31;34.62
41596;BME280;27283;52.504;13.358;2023-08-21T11:40:23;101848.41;;;28.78;34.31
41596;BME280;27283;52.504;13.358;2023-08-21T11:43:00;101853.28;;;28.66;34.87
41596;BME280;27283;52.504;13.358;2023-08-21T11:45:39;101854.88;;;28.40;36.31
41596;BME280;27283;52.504;13.358;2023-08-21T11:48:26;101855.06;;;28.55;36.30
41596;BME280;27283;52.504;13.358;2023-08-21T11:50:59;101847.19;;;28.64;36.70
41596;BME280;27283;52.504;13.358;2023-08-21T11:53:39;101853.38;;;28.27;37.25
41596;BME280;27283;52.504;13.358;2023-08-21T11:56:20;101844.50;;;28.25;37.17
41596;BME280;27283;52.504;13.358;2023-08-21T11:58:52;101848.13;;;28.53;36.97
41596;BME280;27283;52.504;13.358;2023-08-21T12:01:25;101843.91;;;28.45;37.15
41596;BME280;27283;52.504;13.358;2023-08-21T12:03:57;101852.63;;;28.86;36.28
41596;BME280;27283;52.504;13.358;2023-08-21T12:06:44;101847.59;;;28.56;34.76
41596;BME280;27283;52.504;13.358;2023-08-21T12:09:18;101855.31;;;28.26;35.53
41596;BME280;27283;52.504;13.358;2023-08-21T12:12:08;101855.00;;;28.01;37.00
41596;BME280;27283;52.504;13.358;2023-08-21T12:14:44;101854.03;;;27.73;37.66
41596;BME280;27283;52.504;13.358;2023-08-21T12:17:26;101855.72;;;27.74;38.38
41596;BME280;27283;52.504;13.358;2023-08-21T12:19:59;101857.66;;;27.96;38.28
41596;BME280;27283;52.504;13.358;2023-08-21T12:22:47;101853.31;;;28.00;38.06
41596;BME280;27283;52.504;13.358;2023-08-21T12:25:19;101858.97;;;27.93;38.88
41596;BME280;27283;52.504;13.358;2023-08-21T12:28:34;101843.31;;;27.76;39.09
41596;BME280;27283;52.504;13.358;2023-08-21T12:31:38;101845.06;;;28.27;38.85
41596;BME280;27283;52.504;13.358;2023-08-21T12:34:22;101846.50;;;28.07;37.97
41596;BME280;27283;52.504;13.358;2023-08-21T12:36:59;101843.00;;;27.56;37.89
41596;BME280;27283;52.504;13.358;2023-08-21T12:39:55;101848.09;;;27.64;37.99
41596;BME280;27283;52.504;13.358;2023-08-21T12:42:35;101851.56;;;27.54;38.24
41596;BME280;27283;52.504;13.358;2023-08-21T12:45:30;101856.50;;;27.35;38.21
41596;BME280;27283;52.504;13.358;2023-08-21T12:48:03;101850.47;;;27.55;38.97
41596;BME280;27283;52.504;13.358;2023-08-21T12:50:36;101849.78;;;27.14;37.56
41596;BME280;27283;52.504;13.358;2023-08-21T12:53:08;101840.31;;;26.93;38.67
41596;BME280;27283;52.504;13.358;2023-08-21T12:55:41;101846.66;;;26.77;39.21
41596;BME280;27283;52.504;13.358;2023-08-21T12:58:26;101842.50;;;27.08;41.68
41596;BME280;27283;52.504;13.358;2023-08-21T13:01:02;101843.44;;;26.97;39.89
41596;BME280;27283;52.504;13.358;2023-08-21T13:03:37;101844.63;;;27.18;39.54
41596;BME280;27283;52.504;13.358;2023-08-21T13:06:16;101848.28;;;27.23;37.53
41596;BME280;27283;52.504;13.358;2023-08-21T13:08:48;101841.53;;;27.70;37.90
41596;BME280;27283;52.504;13.358;2023-08-21T13:11:23;101836.63;;;27.72;36.16
41596;BME280;27283;52.504;13.358;2023-08-21T13:14:08;101842.97;;;27.73;35.97
41596;BME280;27283;52.504;13.358;2023-08-21T13:17:02;101841.44;;;27.43;36.13
41596;BME280;27283;52.504;13.358;2023-08-21T13:19:50;101846.63;;;27.22;35.55
41596;BME280;27283;52.504;13.358;2023-08-21T13:22:45;101852.72;;;27.58;34.94
41596;BME280;27283;52.504;13.358;2023-08-21T13:25:46;101844.00;;;27.67;35.25
41596;BME280;27283;52.504;13.358;2023-08-21T13:28:26;101848.88;;;27.99;35.06
41596;BME280;27283;52.504;13.358;2023-08-21T13:31:25;101843.00;;;27.56;34.38
41596;BME280;27283;52.504;13.358;2023-08-21T13:39:12;101835.28;;;27.75;33.84
41596;BME280;27283;52.504;13.358;2023-08-21T13:42:25;101840.38;;;28.27;34.08
41596;BME280;27283;52.504;13.358;2023-08-21T13:45:25;101824.34;;;27.63;33.19
41596;BME280;27283;52.504;13.358;2023-08-21T13:48:05;101827.41;;;27.67;32.30
41596;BME280;27283;52.504;13.358;2023-08-21T13:50:58;101821.56;;;27.63;33.19
41596;BME280;27283;52.504;13.358;2023-08-21T13:53:36;101818.47;;;27.99;33.20
41596;BME280;27283;52.504;13.358;2023-08-21T13:56:22;101827.66;;;28.26;33.23
41596;BME280;27283;52.504;13.358;2023-08-21T13:59:05;101816.13;;;28.35;33.73
41596;BME280;27283;52.504;13.358;2023-08-21T14:01:56;101809.34;;;28.20;33.83
41596;BME280;27283;52.504;13.358;2023-08-21T14:05:14;101799.53;;;28.35;33.66
41596;BME280;27283;52.504;13.358;2023-08-21T14:08:22;101801.09;;;28.25;33.36
41596;BME280;27283;52.504;13.358;2023-08-21T14:11:59;101812.25;;;28.08;34.09
41596;BME280;27283;52.504;13.358;2023-08-21T14:14:55;101808.13;;;27.72;33.65
41596;BME280;27283;52.504;13.358;2023-08-21T14:18:13;101806.75;;;27.69;34.79
41596;BME280;27283;52.504;13.358;2023-08-21T14:20:47;101814.44;;;27.67;34.58
41596;BME280;27283;52.504;13.358;2023-08-21T14:23:20;101806.00;;;27.96;33.48
41596;BME280;27283;52.504;13.358;2023-08-21T14:29:58;101816.34;;;28.06;32.27
41596;BME280;27283;52.504;13.358;2023-08-21T14:32:37;101811.50;;;27.18;33.41
41596;BME280;27283;52.504;13.358;2023-08-21T14:35:14;101811.91;;;26.93;33.40
41596;BME280;27283;52.504;13.358;2023-08-21T14:37:49;101804.47;;;27.10;33.90
41596;BME280;27283;52.504;13.358;2023-08-21T14:40:44;101809.06;;;26.87;33.25
41596;BME280;27283;52.504;13.358;2023-08-21T14:43:34;101813.09;;;26.97;33.70
41596;BME280;27283;52.504;13.358;2023-08-21T14:46:13;101812.66;;;27.05;34.64
41596;BME280;27283;52.504;13.358;2023-08-21T14:49:18;101807.63;;;27.02;34.96
41596;BME280;27283;52.504;13.358;2023-08-21T14:51:53;101803.94;;;26.79;34.76
41596;BME280;27283;52.504;13.358;2023-08-21T14:54:32;101805.03;;;27.29;34.95
41596;BME280;27283;52.504;13.358;2023-08-21T14:57:09;101800.94;;;27.32;34.59
41596;BME280;27283;52.504;13.358;2023-08-21T14:59:42;101793.91;;;26.90;36.04
41596;BME280;27283;52.504;13.358;2023-08-21T15:02:29;101788.53;;;27.17;35.06
41596;BME280;27283;52.504;13.358;2023-08-21T15:05:15;101788.81;;;26.82;35.92
41596;BME280;27283;52.504;13.358;2023-08-21T15:08:16;101792.06;;;26.96;35.88
41596;BME280;27283;52.504;13.358;2023-08-21T15:11:13;101794.88;;;27.52;35.51
41596;BME280;27283;52.504;13.358;2023-08-21T15:13:54;101785.66;;;27.63;35.38
41596;BME280;27283;52.504;13.358;2023-08-21T15:16:41;101786.63;;;27.74;36.35